createdAt,value
2018-05-14T00:01:08.770Z,18.53
2018-05-14T00:03:36.880Z,19.10
2018-05-14T00:06:05.810Z,19.77
2018-05-14T00:08:33.909Z,19.73
2018-05-14T00:11:02.017Z,19.20
2018-05-14T00:13:30.135Z,22.50
2018-05-14T00:15:58.238Z,20.33
2018-05-14T00:18:26.369Z,21.40
2018-05-14T00:20:54.554Z,20.87
2018-05-14T00:23:22.657Z,21.37
2018-05-14T00:25:51.026Z,20.47
2018-05-14T00:28:19.150Z,21.67
2018-05-14T00:30:48.123Z,22.33
2018-05-14T00:33:16.245Z,22.43
2018-05-14T00:35:45.660Z,21.43
2018-05-14T00:38:13.748Z,21.37
2018-05-14T00:40:41.876Z,23.00
2018-05-14T00:43:10.273Z,23.17
2018-05-14T00:45:38.376Z,23.93
2018-05-14T00:48:06.509Z,23.80
2018-05-14T00:50:34.639Z,23.90
2018-05-14T00:53:02.733Z,24.30
2018-05-14T00:55:30.848Z,23.47
2018-05-14T00:57:58.973Z,24.07
2018-05-14T01:00:27.068Z,24.37
2018-05-14T01:02:55.197Z,24.20
2018-05-14T01:05:23.308Z,23.53
2018-05-14T01:07:51.408Z,24.30
2018-05-14T01:10:20.312Z,24.17
2018-05-14T01:12:48.441Z,23.80
2018-05-14T01:15:16.542Z,24.40
2018-05-14T01:17:44.662Z,25.97
2018-05-14T01:20:12.854Z,27.90
2018-05-14T01:22:40.953Z,26.60
2018-05-14T01:25:09.070Z,27.93
2018-05-14T01:27:37.201Z,27.00
2018-05-14T01:30:05.300Z,27.87
2018-05-14T01:32:33.418Z,26.70
2018-05-14T01:35:01.545Z,27.40
2018-05-14T01:37:29.650Z,28.23
2018-05-14T01:39:58.060Z,27.17
2018-05-14T01:42:26.218Z,26.73
2018-05-14T01:44:54.360Z,26.43
2018-05-14T01:47:22.460Z,27.47
2018-05-14T01:49:50.609Z,27.13
2018-05-14T01:52:18.718Z,27.67
2018-05-14T01:54:47.741Z,27.77
2018-05-14T01:57:16.725Z,27.50
2018-05-14T01:59:44.873Z,26.07
2018-05-14T02:02:13.032Z,27.80
2018-05-14T02:04:45.935Z,30.60
2018-05-14T02:07:14.961Z,28.03
2018-05-14T02:09:43.074Z,29.70
2018-05-14T02:12:11.188Z,28.70
2018-05-14T02:14:39.357Z,25.83
2018-05-14T02:17:07.471Z,28.87
2018-05-14T02:19:35.605Z,31.37
2018-05-14T02:22:03.760Z,28.20
2018-05-14T02:24:31.879Z,31.07
2018-05-14T02:27:02.013Z,29.73
2018-05-14T02:29:30.119Z,29.77
2018-05-14T02:31:58.208Z,29.60
2018-05-14T02:34:26.343Z,29.63
2018-05-14T02:36:54.499Z,30.77
2018-05-14T02:39:22.597Z,30.23
2018-05-14T02:41:50.717Z,29.50
2018-05-14T02:44:18.851Z,28.63
2018-05-14T02:46:46.958Z,30.70
2018-05-14T02:49:15.084Z,28.20
2018-05-14T02:51:43.210Z,30.00
2018-05-14T02:54:11.305Z,28.50
2018-05-14T02:56:39.434Z,29.20
2018-05-14T02:59:07.552Z,29.47
2018-05-14T03:01:35.739Z,28.60
2018-05-14T03:04:03.874Z,28.97
2018-05-14T03:06:32.020Z,30.50
2018-05-14T03:09:00.161Z,28.77
2018-05-14T03:11:28.254Z,30.20
2018-05-14T03:13:56.373Z,30.30
2018-05-14T03:16:24.497Z,28.97
2018-05-14T03:18:52.642Z,29.77
2018-05-14T03:21:20.811Z,30.57
2018-05-14T03:23:48.920Z,29.63
2018-05-14T03:26:17.026Z,30.30
2018-05-14T03:28:45.195Z,31.37
2018-05-14T03:31:13.374Z,32.13
2018-05-14T03:33:41.489Z,33.17
2018-05-14T03:36:09.595Z,34.70
2018-05-14T03:38:37.721Z,33.47
2018-05-14T03:41:05.830Z,35.17
2018-05-14T03:43:33.955Z,32.40
2018-05-14T03:46:02.101Z,37.60
2018-05-14T03:48:30.198Z,37.37
2018-05-14T03:50:58.308Z,35.40
2018-05-14T03:53:26.433Z,35.47
2018-05-14T03:55:54.545Z,34.50
2018-05-14T03:58:34.559Z,35.17
2018-05-14T04:01:15.521Z,34.63
2018-05-14T04:04:01.100Z,36.27
2018-05-14T04:06:30.059Z,31.93
2018-05-14T04:21:58.203Z,30.80
2018-05-14T04:24:27.220Z,32.07
2018-05-14T04:26:55.289Z,32.17
2018-05-14T04:29:23.417Z,31.43
2018-05-14T04:31:51.535Z,31.70
2018-05-14T04:34:19.697Z,30.00
2018-05-14T04:36:47.815Z,28.10
2018-05-14T04:39:15.917Z,30.33
2018-05-14T04:41:44.067Z,28.03
2018-05-14T04:44:12.163Z,29.53
2018-05-14T04:46:40.320Z,30.30
2018-05-14T04:49:08.409Z,29.13
2018-05-14T04:51:36.561Z,28.07
2018-05-14T04:54:05.470Z,29.23
2018-05-14T04:56:33.583Z,30.70
2018-05-14T04:59:01.680Z,24.93
2018-05-14T05:01:29.796Z,27.30
2018-05-14T05:03:57.926Z,27.03
2018-05-14T05:06:26.038Z,26.40
2018-05-14T05:08:54.365Z,26.30
2018-05-14T05:11:22.500Z,27.03
2018-05-14T05:13:50.618Z,26.97
2018-05-14T05:16:18.718Z,26.87
2018-05-14T05:18:52.328Z,27.00
2018-05-14T05:21:26.021Z,26.73
2018-05-14T05:23:54.239Z,28.63
2018-05-14T05:26:22.354Z,26.77
2018-05-14T05:28:50.501Z,27.37
2018-05-14T05:31:18.628Z,28.37
2018-05-14T05:33:46.777Z,27.40
2018-05-14T05:36:14.892Z,27.93
2018-05-14T05:38:43.032Z,25.73
2018-05-14T05:41:11.144Z,24.73
2018-05-14T05:43:39.270Z,26.90
2018-05-14T05:46:07.414Z,25.93
2018-05-14T05:48:35.524Z,27.77
2018-05-14T05:51:03.637Z,26.57
2018-05-14T05:53:31.766Z,24.73
2018-05-14T05:55:59.868Z,25.20
2018-05-14T05:58:27.978Z,26.53
2018-05-14T06:00:56.842Z,26.13
2018-05-14T06:03:24.940Z,26.40
2018-05-14T06:05:53.664Z,26.53
2018-05-14T06:08:21.781Z,29.13
2018-05-14T06:10:49.927Z,26.87
2018-05-14T06:13:18.164Z,29.17
2018-05-14T06:15:48.033Z,28.27
2018-05-14T06:18:16.136Z,26.87
2018-05-14T06:20:44.289Z,27.20
2018-05-14T06:23:12.380Z,25.77
2018-05-14T06:25:40.540Z,25.80
2018-05-14T06:28:08.639Z,25.27
2018-05-14T06:30:36.877Z,24.17
2018-05-14T06:33:04.874Z,22.23
2018-05-14T06:35:33.078Z,24.40
2018-05-14T06:38:01.156Z,22.83
2018-05-14T06:40:29.252Z,23.90
2018-05-14T06:42:57.354Z,24.33
2018-05-14T06:45:25.472Z,22.10
2018-05-14T06:47:53.590Z,23.27
2018-05-14T06:50:21.690Z,23.07
2018-05-14T06:52:49.804Z,23.43
2018-05-14T06:55:17.919Z,22.97
2018-05-14T06:57:46.046Z,23.90
2018-05-14T07:00:14.146Z,23.50
2018-05-14T07:02:42.288Z,22.13
2018-05-14T07:05:10.385Z,24.53
2018-05-14T07:07:38.502Z,22.20
2018-05-14T07:10:06.629Z,22.57
2018-05-14T07:12:35.939Z,21.67
2018-05-14T07:15:03.886Z,20.67
2018-05-14T07:17:32.040Z,23.07
2018-05-14T07:20:00.182Z,23.60
2018-05-14T07:22:28.308Z,21.00
2018-05-14T07:24:56.436Z,21.70
2018-05-14T07:27:24.538Z,22.00
2018-05-14T07:29:53.282Z,22.37
2018-05-14T07:32:21.410Z,22.83
2018-05-14T07:34:49.531Z,23.87
2018-05-14T07:37:18.290Z,21.73
2018-05-14T07:39:46.406Z,22.80
2018-05-14T07:42:14.501Z,24.73
2018-05-14T07:44:42.612Z,22.63
2018-05-14T07:47:10.728Z,22.17
2018-05-14T07:49:38.851Z,23.30
2018-05-14T07:52:07.212Z,21.60
2018-05-14T07:54:35.313Z,22.43
2018-05-14T07:57:03.462Z,23.20
2018-05-14T07:59:32.637Z,21.13
2018-05-14T08:02:01.004Z,21.10
2018-05-14T08:04:29.111Z,22.83
2018-05-14T08:06:57.241Z,22.27
2018-05-14T08:09:25.394Z,21.00
2018-05-14T08:11:53.500Z,21.37
2018-05-14T08:14:21.608Z,22.93
2018-05-14T08:16:49.734Z,23.67
2018-05-14T08:19:17.858Z,23.57
2018-05-14T08:21:45.959Z,23.40
2018-05-14T08:24:14.096Z,23.50
2018-05-14T08:26:42.274Z,23.97
2018-05-14T08:29:10.320Z,24.50
2018-05-14T08:31:42.295Z,25.03
2018-05-14T08:34:10.413Z,23.83
2018-05-14T08:36:38.796Z,24.23
2018-05-14T08:39:06.900Z,23.93
2018-05-14T08:41:35.058Z,24.73
2018-05-14T08:44:03.152Z,27.10
2018-05-14T08:46:31.274Z,26.17
2018-05-14T08:48:59.369Z,25.90
2018-05-14T08:51:27.469Z,26.73
2018-05-14T08:53:55.600Z,27.67
2018-05-14T08:56:23.709Z,29.07
2018-05-14T08:58:51.806Z,29.60
2018-05-14T09:01:20.715Z,28.90
2018-05-14T09:03:48.822Z,30.47
2018-05-14T09:06:16.928Z,29.50
2018-05-14T09:08:45.081Z,31.00
2018-05-14T09:11:13.172Z,31.10
2018-05-14T09:13:41.280Z,30.83
2018-05-14T09:16:09.385Z,29.60
2018-05-14T09:18:37.882Z,30.97
2018-05-14T09:21:06.050Z,30.23
2018-05-14T09:23:34.249Z,30.37
2018-05-14T09:26:02.360Z,29.43
2018-05-14T09:28:30.464Z,32.07
2018-05-14T09:30:58.589Z,30.13
2018-05-14T09:33:26.761Z,31.60
2018-05-14T09:35:54.910Z,31.43
2018-05-14T09:38:23.756Z,30.40
2018-05-14T09:40:52.791Z,31.73
2018-05-14T09:43:20.884Z,31.63
2018-05-14T09:45:49.000Z,30.80
2018-05-14T09:48:17.867Z,28.60
2018-05-14T09:50:45.920Z,29.90
2018-05-14T09:53:14.190Z,32.97
2018-05-14T09:55:42.300Z,29.60
2018-05-14T09:58:10.400Z,29.23
2018-05-14T10:00:38.552Z,32.60
2018-05-14T10:03:06.656Z,32.57
2018-05-14T10:05:34.778Z,32.53
2018-05-14T10:08:02.881Z,33.30
2018-05-14T10:10:31.888Z,31.93
2018-05-14T10:13:00.058Z,32.90
2018-05-14T10:15:28.162Z,34.57
2018-05-14T10:17:56.251Z,34.27
2018-05-14T10:20:24.380Z,32.47
2018-05-14T10:22:52.496Z,33.03
2018-05-14T10:25:20.627Z,31.87
2018-05-14T10:27:48.796Z,32.67
2018-05-14T10:30:16.917Z,31.23
2018-05-14T10:32:45.017Z,34.87
2018-05-14T10:35:13.143Z,33.77
2018-05-14T10:37:41.248Z,33.50
2018-05-14T10:40:09.597Z,34.23
2018-05-14T10:42:37.708Z,34.07
2018-05-14T10:45:05.869Z,33.90
2018-05-14T10:47:34.098Z,34.23
2018-05-14T10:50:02.233Z,34.80
2018-05-14T10:52:35.288Z,34.97
2018-05-14T10:55:03.421Z,35.17
2018-05-14T10:57:31.529Z,35.33
2018-05-14T10:59:59.629Z,35.20
2018-05-14T11:02:27.756Z,33.80
2018-05-14T11:04:55.861Z,29.80
2018-05-14T11:07:24.884Z,31.30
2018-05-14T11:09:53.014Z,34.33
2018-05-14T11:12:21.126Z,31.57
2018-05-14T11:14:49.225Z,30.73
2018-05-14T11:17:17.341Z,29.80
2018-05-14T11:19:45.745Z,30.60
2018-05-14T11:22:13.862Z,30.33
2018-05-14T11:24:41.982Z,30.00
2018-05-14T11:27:10.096Z,27.43
2018-05-14T11:29:38.684Z,27.77
2018-05-14T11:32:06.813Z,27.90
2018-05-14T11:34:34.937Z,28.07
2018-05-14T11:37:03.036Z,24.40
2018-05-14T11:39:31.135Z,26.63
2018-05-14T11:41:59.265Z,26.40
2018-05-14T11:44:28.068Z,26.43
2018-05-14T11:46:56.278Z,26.70
2018-05-14T11:49:24.360Z,25.07
2018-05-14T11:51:52.487Z,24.63
2018-05-14T11:54:20.589Z,24.67
2018-05-14T11:56:48.710Z,24.03
2018-05-14T11:59:16.844Z,23.90
2018-05-14T12:01:45.780Z,26.73
2018-05-14T12:04:13.909Z,23.43
2018-05-14T12:06:42.015Z,23.00
2018-05-14T12:09:10.135Z,22.70
2018-05-14T12:11:38.260Z,23.70
2018-05-14T12:14:06.356Z,23.13
2018-05-14T12:16:34.538Z,21.83
2018-05-14T12:19:02.648Z,22.30
2018-05-14T12:21:30.757Z,22.60
2018-05-14T12:23:58.866Z,20.30
2018-05-14T12:26:27.783Z,20.30
2018-05-14T12:28:55.890Z,21.70
2018-05-14T12:31:29.607Z,20.93
2018-05-14T12:33:57.718Z,21.07
2018-05-14T12:36:25.820Z,20.23
2018-05-14T12:38:54.848Z,21.50
2018-05-14T12:41:22.979Z,22.30
2018-05-14T12:43:51.117Z,19.97
2018-05-14T12:46:19.288Z,20.37
2018-05-14T12:48:47.420Z,20.97
2018-05-14T12:51:15.546Z,20.10
2018-05-14T12:53:43.685Z,19.63
2018-05-14T12:56:11.792Z,18.57
2018-05-14T12:58:40.168Z,19.13
2018-05-14T13:01:08.276Z,18.10
2018-05-14T13:03:36.381Z,18.77
2018-05-14T13:06:04.508Z,19.13
2018-05-14T13:08:32.616Z,19.27
2018-05-14T13:11:00.733Z,17.87
2018-05-14T13:13:29.485Z,20.50
2018-05-14T13:15:57.583Z,19.77
2018-05-14T13:18:25.697Z,19.37
2018-05-14T13:20:53.865Z,19.47
2018-05-14T13:23:21.960Z,18.77
2018-05-14T13:25:50.077Z,17.67
2018-05-14T13:28:18.224Z,18.63
2018-05-14T13:30:46.334Z,16.77
2018-05-14T13:33:14.473Z,18.23
2018-05-14T13:35:42.611Z,17.53
2018-05-14T13:38:10.716Z,18.90
2018-05-14T13:40:38.829Z,18.27
2018-05-14T13:43:06.949Z,17.50
2018-05-14T13:45:35.078Z,16.53
2018-05-14T13:48:03.281Z,18.80
2018-05-14T13:50:31.383Z,19.03
2018-05-14T13:52:59.487Z,16.37
2018-05-14T13:55:27.589Z,16.80
2018-05-14T13:57:55.736Z,18.70
2018-05-14T14:00:23.847Z,17.37
2018-05-14T14:02:51.957Z,18.83
2018-05-14T14:05:20.081Z,18.23
2018-05-14T14:07:53.905Z,16.53
2018-05-14T14:10:22.054Z,16.73
2018-05-14T14:12:50.181Z,18.70
2018-05-14T14:15:18.290Z,17.33
2018-05-14T14:17:46.438Z,17.43
2018-05-14T14:20:14.561Z,16.23
2018-05-14T14:22:42.677Z,16.30
2018-05-14T14:25:10.785Z,17.77
2018-05-14T14:27:38.909Z,16.10
2018-05-14T14:30:07.010Z,16.77
2018-05-14T14:32:35.115Z,17.13
2018-05-14T14:35:03.246Z,16.53
2018-05-14T14:37:31.357Z,15.27
2018-05-14T14:39:59.449Z,16.77
2018-05-14T14:42:27.574Z,17.30
2018-05-14T14:44:55.697Z,17.00
2018-05-14T14:47:23.805Z,16.50
2018-05-14T14:49:51.929Z,17.23
2018-05-14T14:52:20.367Z,15.57
2018-05-14T14:54:48.470Z,14.47
2018-05-14T14:57:16.578Z,16.03
2018-05-14T14:59:44.997Z,15.57
2018-05-14T15:02:13.113Z,15.67
2018-05-14T15:04:41.228Z,15.60
2018-05-14T15:07:09.366Z,15.13
2018-05-14T15:09:37.512Z,14.00
2018-05-14T15:12:05.631Z,15.10
2018-05-14T15:14:33.762Z,15.40
2018-05-14T15:17:01.934Z,13.90
2018-05-14T15:19:30.042Z,13.90
2018-05-14T15:21:59.114Z,15.10
2018-05-14T15:24:27.217Z,14.93
2018-05-14T15:26:55.325Z,13.80
2018-05-14T15:29:23.434Z,14.97
2018-05-14T15:31:51.665Z,14.93
2018-05-14T15:34:19.781Z,14.33
2018-05-14T15:36:47.886Z,14.43
2018-05-14T15:39:16.836Z,14.30
2018-05-14T15:41:44.945Z,15.93
2018-05-14T15:44:13.050Z,14.77
2018-05-14T15:46:41.225Z,15.40
2018-05-14T15:49:09.846Z,14.20
2018-05-14T15:51:37.969Z,14.63
2018-05-14T15:54:06.099Z,15.73
2018-05-14T15:56:34.217Z,14.57
2018-05-14T15:59:02.294Z,16.07
2018-05-14T16:01:30.415Z,14.70
2018-05-14T16:03:58.525Z,15.70
2018-05-14T16:06:26.738Z,14.83
2018-05-14T16:08:54.859Z,16.67
2018-05-14T16:11:22.963Z,15.37
2018-05-14T16:13:51.091Z,15.37
2018-05-14T16:16:19.217Z,14.67
2018-05-14T16:18:47.399Z,16.17
2018-05-14T16:21:15.507Z,15.00
2018-05-14T16:23:43.623Z,14.80
2018-05-14T16:26:11.725Z,14.80
2018-05-14T16:28:39.846Z,14.83
2018-05-14T16:31:07.981Z,16.63
2018-05-14T16:33:36.109Z,14.13
2018-05-14T16:36:04.229Z,16.37
2018-05-14T16:38:34.001Z,16.00
2018-05-14T16:41:02.149Z,16.63
2018-05-14T16:43:30.255Z,15.63
2018-05-14T16:45:58.381Z,16.17
2018-05-14T16:48:27.311Z,15.77
2018-05-14T16:50:55.461Z,17.20
2018-05-14T16:53:23.613Z,16.13
2018-05-14T16:55:51.737Z,27.20
2018-05-14T16:58:19.945Z,24.53
2018-05-14T17:00:48.062Z,17.77
2018-05-14T17:03:16.171Z,16.90
2018-05-14T17:05:44.285Z,17.27
2018-05-14T17:08:12.387Z,15.47
2018-05-14T17:10:40.592Z,18.03
2018-05-14T17:13:08.715Z,16.67
2018-05-14T17:15:36.846Z,16.20
2018-05-14T17:18:04.945Z,17.17
2018-05-14T17:20:33.062Z,15.60
2018-05-14T17:23:01.172Z,16.60
2018-05-14T17:25:29.296Z,15.60
2018-05-14T17:27:57.481Z,16.60
2018-05-14T17:30:25.641Z,16.87
2018-05-14T17:32:53.744Z,17.17
2018-05-14T17:35:21.855Z,15.73
2018-05-14T17:37:49.971Z,15.23
2018-05-14T17:40:18.094Z,15.60
2018-05-14T17:42:46.212Z,15.50
2018-05-14T17:45:14.337Z,15.40
2018-05-14T17:47:42.456Z,15.70
2018-05-14T17:50:10.596Z,15.50
2018-05-14T17:52:38.712Z,14.97
2018-05-14T17:55:06.828Z,15.50
2018-05-14T17:57:35.744Z,15.67
2018-05-14T18:00:04.632Z,15.17
2018-05-14T18:02:32.742Z,15.87
2018-05-14T18:05:00.862Z,16.17
2018-05-14T18:07:29.030Z,14.30
2018-05-14T18:09:57.185Z,15.70
2018-05-14T18:12:25.301Z,16.13
2018-05-14T18:14:53.432Z,15.83
2018-05-14T18:17:21.615Z,15.13
2018-05-14T18:19:55.222Z,16.00
2018-05-14T18:22:26.058Z,15.73
2018-05-14T18:25:00.044Z,15.97
2018-05-14T18:27:32.414Z,16.03
2018-05-14T18:30:06.972Z,14.77
2018-05-14T18:32:35.217Z,15.97
2018-05-14T18:35:09.306Z,15.77
2018-05-14T18:37:37.428Z,16.07
2018-05-14T18:40:05.588Z,16.60
2018-05-14T18:42:33.737Z,16.23
2018-05-14T18:45:01.863Z,15.10
2018-05-14T18:47:31.694Z,16.37
2018-05-14T18:50:00.200Z,16.33
2018-05-14T18:52:28.302Z,15.73
2018-05-14T18:54:56.415Z,16.57
2018-05-14T18:57:24.554Z,16.30
2018-05-14T18:59:52.717Z,16.83
2018-05-14T19:02:20.864Z,16.17
2018-05-14T19:04:48.986Z,16.83
2018-05-14T19:07:17.081Z,16.23
2018-05-14T19:09:45.255Z,16.57
2018-05-14T19:12:13.364Z,16.13
2018-05-14T19:14:41.478Z,16.77
2018-05-14T19:20:15.216Z,17.67
2018-05-14T19:22:48.890Z,16.60
2018-05-14T19:25:17.001Z,17.10
2018-05-14T19:27:50.654Z,17.50
2018-05-14T19:30:18.772Z,16.80
2018-05-14T19:32:46.889Z,16.93
2018-05-14T19:35:20.690Z,16.53
2018-05-14T19:37:48.798Z,16.73
2018-05-14T19:40:22.563Z,16.60
2018-05-14T19:42:50.678Z,17.03
2018-05-14T19:45:18.794Z,17.17
2018-05-14T19:47:46.920Z,17.73
2018-05-14T19:50:15.035Z,17.10
2018-05-14T19:52:43.374Z,16.53
2018-05-14T19:55:11.484Z,17.13
2018-05-14T19:57:39.610Z,17.00
2018-05-14T20:00:07.747Z,17.80
2018-05-14T20:02:35.878Z,17.23
2018-05-14T20:05:04.104Z,17.10
2018-05-14T20:07:32.217Z,16.83
2018-05-14T20:10:00.342Z,17.53
2018-05-14T20:12:28.451Z,17.50
2018-05-14T20:14:56.587Z,17.87
2018-05-14T20:17:24.730Z,16.80
2018-05-14T20:19:52.848Z,16.90
2018-05-14T20:22:21.012Z,17.60
2018-05-14T20:24:49.120Z,17.63
2018-05-14T20:27:17.700Z,17.40
2018-05-14T20:29:45.876Z,19.43
2018-05-14T20:32:14.011Z,17.97
2018-05-14T20:34:42.142Z,17.83
2018-05-14T20:37:10.398Z,18.27
2018-05-14T20:39:38.404Z,18.47
2018-05-14T20:42:06.523Z,18.13
2018-05-14T20:44:34.636Z,17.90
2018-05-14T20:47:02.762Z,18.67
2018-05-14T20:49:30.906Z,18.77
2018-05-14T20:51:59.025Z,19.27
2018-05-14T20:54:27.968Z,17.67
2018-05-14T20:56:56.086Z,19.30
2018-05-14T20:59:25.030Z,18.87
2018-05-14T21:01:53.142Z,19.00
2018-05-14T21:04:21.246Z,20.27
2018-05-14T21:06:49.362Z,19.63
2018-05-14T21:09:17.514Z,20.10
2018-05-14T21:11:45.690Z,20.40
2018-05-14T21:14:13.826Z,19.67
2018-05-14T21:16:42.030Z,18.93
2018-05-14T21:19:10.174Z,20.50
2018-05-14T21:21:39.046Z,20.43
2018-05-14T21:24:07.275Z,19.30
2018-05-14T21:26:35.457Z,19.23
2018-05-14T21:29:03.982Z,19.73
2018-05-14T21:31:32.165Z,19.63
2018-05-14T21:34:02.290Z,19.77
2018-05-14T21:36:30.780Z,20.60
2018-05-14T21:38:58.934Z,19.87
2018-05-14T21:54:22.123Z,22.27
2018-05-14T21:56:50.270Z,20.10
2018-05-14T21:59:18.712Z,21.27
2018-05-14T22:01:46.910Z,20.33
2018-05-14T22:04:15.148Z,20.20
2018-05-14T22:06:44.463Z,18.80
2018-05-14T22:09:13.172Z,21.37
2018-05-14T22:11:41.338Z,19.53
2018-05-14T22:14:09.441Z,18.87
2018-05-14T22:16:38.556Z,21.47
2018-05-14T22:19:06.952Z,20.63
2018-05-14T22:21:35.242Z,20.33
2018-05-14T22:24:03.370Z,21.80
2018-05-14T22:26:31.564Z,19.87
2018-05-14T22:29:00.670Z,19.20
2018-05-14T22:31:28.806Z,18.50
2018-05-14T22:33:57.266Z,19.33
2018-05-14T22:36:25.380Z,18.97
2018-05-14T22:38:53.530Z,19.90
2018-05-14T22:41:22.658Z,19.70
2018-05-14T22:43:52.223Z,20.20
2018-05-14T22:46:21.147Z,18.83
2018-05-14T22:48:50.998Z,19.67
2018-05-14T22:51:19.222Z,19.23
2018-05-14T22:53:47.429Z,19.30
2018-05-14T22:56:20.514Z,18.63
2018-05-14T22:58:48.672Z,18.67
2018-05-14T23:01:16.843Z,18.20
2018-05-14T23:03:45.032Z,18.17
2018-05-14T23:06:14.186Z,17.90
2018-05-14T23:08:44.112Z,18.23
2018-05-14T23:11:12.232Z,18.20
2018-05-14T23:13:40.802Z,19.03
2018-05-14T23:16:09.450Z,19.00
2018-05-14T23:18:37.802Z,19.10
2018-05-14T23:21:06.833Z,18.73
2018-05-14T23:23:36.728Z,16.80
2018-05-14T23:26:05.009Z,17.70
2018-05-14T23:28:33.251Z,17.23
2018-05-14T23:31:01.381Z,17.70
2018-05-14T23:33:29.491Z,17.87
2018-05-14T23:35:58.991Z,18.37
2018-05-14T23:38:27.123Z,16.67
2018-05-14T23:40:55.247Z,18.07
2018-05-14T23:43:24.081Z,17.17
2018-05-14T23:45:52.568Z,17.40
2018-05-14T23:48:21.259Z,17.60
2018-05-14T23:50:50.258Z,18.10
2018-05-14T23:53:18.370Z,18.57
2018-05-14T23:55:46.498Z,18.17
2018-05-14T23:58:14.604Z,19.17
